Time;durP1;ratioP1;P1;durP2;ratioP2;P2;SDS_P1;SDS_P2;PMS_P1;PMS_P2;Temp;Humidity;BMP_temperature;BMP_pressure;BME280_temperature;BME280_humidity;BME280_pressure;Samples;Min_cycle;Max_cycle;Signal;HPM_P1;HPM_P2
2022/10/18 00:01:07;;;;;;;;;;;15.60;99.90;;;;;;5079881;28;20487;-70
2022/10/18 00:03:33;;;;;;;7.95;1.73;;;15.50;99.90;;;;;;5062705;28;19927;-70
2022/10/18 00:05:59;;;;;;;6.40;1.95;;;15.50;99.90;;;;;;5071779;28;20048;-70
2022/10/18 00:08:25;;;;;;;;;;;15.50;99.90;;;;;;5081424;28;20050;-70
2022/10/18 00:10:51;;;;;;;6.07;1.50;;;15.50;99.90;;;;;;5080147;28;20433;-71
2022/10/18 00:13:17;;;;;;;;;;;15.50;99.90;;;;;;5081107;28;20043;-71
2022/10/18 00:15:55;;;;;;;12.50;2.20;;;15.40;99.90;;;;;;5080681;28;19916;-71
2022/10/18 00:18:22;;;;;;;7.72;1.75;;;15.50;99.90;;;;;;5071139;28;20049;-70
2022/10/18 00:21:03;;;;;;;5.80;1.30;;;15.40;99.90;;;;;;5066601;28;20062;-70
2022/10/18 00:23:30;;;;;;;5.85;1.50;;;15.40;99.90;;;;;;5066687;28;20051;-70
2022/10/18 00:26:06;;;;;;;2.45;1.13;;;15.40;99.90;;;;;;5068352;28;20048;-71
2022/10/18 00:28:33;;;;;;;8.07;2.03;;;15.40;99.90;;;;;;5072331;28;20071;-71
2022/10/18 00:31:19;;;;;;;6.28;2.22;;;15.40;99.90;;;;;;5063147;28;20815;-71
2022/10/18 00:33:48;;;;;;;10.95;1.83;;;15.40;99.90;;;;;;5067283;28;20039;-70
2022/10/18 00:36:14;;;;;;;6.95;1.52;;;15.30;99.90;;;;;;5061587;28;20043;-70
2022/10/18 00:38:40;;;;;;;3.88;1.70;;;15.30;99.90;;;;;;5067860;28;20044;-70
2022/10/18 00:41:07;;;;;;;;;;;15.40;99.90;;;;;;5066536;28;20492;-70
2022/10/18 00:43:49;;;;;;;7.15;1.42;;;15.40;99.90;;;;;;5065730;28;19920;-70
2022/10/18 00:46:15;;;;;;;10.57;1.33;;;15.40;99.90;;;;;;5063426;28;20228;-70
2022/10/18 00:48:41;;;;;;;;;;;15.30;99.90;;;;;;5067065;28;20753;-70
2022/10/18 00:51:06;;;;;;;4.55;1.70;;;15.30;99.90;;;;;;5064831;28;19947;-70
2022/10/18 00:53:32;;;;;;;8.35;1.65;;;15.40;99.90;;;;;;5066161;28;20442;-71
2022/10/18 00:55:58;;;;;;;;;;;15.30;99.90;;;;;;5064760;28;20394;-70
2022/10/18 00:58:23;;;;;;;7.50;2.70;;;15.30;99.90;;;;;;5060925;28;20006;-70
2022/10/18 01:00:49;;;;;;;;;;;15.30;99.90;;;;;;5064227;28;20044;-70
2022/10/18 01:03:15;;;;;;;7.50;1.48;;;15.20;99.90;;;;;;5066033;28;19916;-70
2022/10/18 01:05:42;;;;;;;;;;;15.20;99.90;;;;;;5059173;28;20052;-70
2022/10/18 01:08:41;;;;;;;12.27;1.45;;;15.20;99.90;;;;;;5066702;28;20618;-70
2022/10/18 01:11:44;;;;;;;4.05;0.90;;;15.20;99.90;;;;;;5065857;28;20119;-70
2022/10/18 01:14:33;;;;;;;3.42;1.00;;;15.20;99.90;;;;;;5059099;28;20044;-70
2022/10/18 01:17:13;;;;;;;4.22;1.00;;;15.20;99.90;;;;;;5066043;28;20090;-70
2022/10/18 01:20:02;;;;;;;5.35;0.90;;;15.20;99.90;;;;;;5066014;28;20117;-70
2022/10/18 01:22:42;;;;;;;4.13;0.98;;;15.20;99.90;;;;;;5061777;28;20079;-70
2022/10/18 01:25:38;;;;;;;2.25;1.17;;;15.10;99.90;;;;;;5055787;28;20111;-70
2022/10/18 01:28:11;;;;;;;5.43;0.80;;;15.20;99.90;;;;;;5065282;28;20044;-70
2022/10/18 01:30:42;;;;;;;23.38;1.90;;;15.20;99.90;;;;;;5063100;28;20036;-70
2022/10/18 01:33:42;;;;;;;6.30;1.25;;;15.10;99.90;;;;;;5065865;28;20574;-70
2022/10/18 01:36:43;;;;;;;2.80;0.90;;;15.10;99.90;;;;;;5053812;28;20124;-70
2022/10/18 01:39:21;;;;;;;4.88;1.00;;;15.00;99.90;;;;;;5064787;28;20463;-70
2022/10/18 01:41:51;;;;;;;3.28;1.30;;;15.00;99.90;;;;;;5065773;28;20102;-70
2022/10/18 01:44:28;;;;;;;1.48;1.15;;;15.10;99.90;;;;;;5065316;28;20285;-70
2022/10/18 01:47:01;;;;;;;6.57;1.27;;;15.10;99.90;;;;;;5065301;28;20068;-70
2022/10/18 01:49:26;;;;;;;1.42;1.10;;;15.10;99.90;;;;;;5065686;28;20435;-70
2022/10/18 01:51:55;;;;;;;;;;;15.10;99.90;;;;;;5066236;28;20043;-70
2022/10/18 01:54:28;;;;;;;3.42;0.88;;;15.10;99.90;;;;;;5066137;28;19920;-70
2022/10/18 01:57:16;;;;;;;2.72;1.40;;;15.10;99.90;;;;;;5064929;28;20122;-70
2022/10/18 01:59:57;;;;;;;2.22;1.05;;;15.10;99.90;;;;;;5062873;28;20048;-70
2022/10/18 02:03:00;;;;;;;2.05;1.00;;;15.10;99.90;;;;;;5043484;28;20092;-70
2022/10/18 02:05:43;;;;;;;5.07;1.40;;;15.10;99.90;;;;;;5058130;28;20488;-70
2022/10/18 02:08:32;;;;;;;5.53;1.30;;;15.10;99.90;;;;;;5059236;28;20528;-70
2022/10/18 02:11:33;;;;;;;7.32;1.77;;;15.10;99.90;;;;;;5066826;28;20084;-70
2022/10/18 02:14:09;;;;;;;1.70;1.23;;;15.10;99.90;;;;;;5064392;28;20045;-70
2022/10/18 02:16:51;;;;;;;2.73;1.70;;;15.10;99.90;;;;;;5065249;28;20044;-70
2022/10/18 02:19:42;;;;;;;5.18;1.50;;;15.10;99.90;;;;;;5065451;28;20247;-69
2022/10/18 02:22:15;;;;;;;2.72;1.58;;;15.10;99.90;;;;;;5065106;28;20063;-70
2022/10/18 02:24:49;;;;;;;5.70;1.75;;;15.10;99.90;;;;;;5064227;28;20040;-70
2022/10/18 02:27:18;;;;;;;2.13;1.33;;;15.10;99.90;;;;;;5065172;28;20048;-70
2022/10/18 02:29:47;;;;;;;2.60;1.20;;;15.10;99.90;;;;;;5065824;28;20120;-70
2022/10/18 02:32:17;;;;;;;0.80;0.57;;;15.10;99.90;;;;;;5070660;28;20099;-70
2022/10/18 02:34:54;;;;;;;3.38;0.65;;;15.00;99.90;;;;;;5062447;28;20041;-70
2022/10/18 02:37:36;;;;;;;2.05;0.90;;;15.00;99.90;;;;;;5065307;28;20040;-70
2022/10/18 02:40:06;;;;;;;4.72;0.90;;;15.00;99.90;;;;;;5064401;28;20045;-69
2022/10/18 02:42:45;;;;;;;1.98;0.70;;;15.00;99.90;;;;;;5064501;28;20492;-70
2022/10/18 02:45:23;;;;;;;0.82;0.50;;;15.00;99.90;;;;;;5065665;28;20037;-70
2022/10/18 02:47:54;;;;;;;2.10;0.60;;;15.00;99.90;;;;;;5065586;28;20044;-70
2022/10/18 02:50:20;;;;;;;2.55;0.80;;;14.90;99.90;;;;;;5045279;28;20108;-70
2022/10/18 02:52:48;;;;;;;;;;;15.00;99.90;;;;;;5045811;28;20587;-70
2022/10/18 02:55:18;;;;;;;1.65;0.85;;;15.00;99.90;;;;;;5064095;28;19923;-70
2022/10/18 02:57:52;;;;;;;1.58;0.70;;;14.90;99.90;;;;;;5063745;28;20048;-70
2022/10/18 03:00:17;;;;;;;6.75;0.82;;;14.90;99.90;;;;;;5063177;28;20044;-69
2022/10/18 03:02:52;;;;;;;;;;;14.90;99.90;;;;;;5065095;28;20044;-70
2022/10/18 03:05:22;;;;;;;1.27;0.70;;;14.90;99.90;;;;;;5057730;28;19928;-69
2022/10/18 03:08:05;;;;;;;1.58;0.60;;;14.90;99.90;;;;;;5064527;28;20197;-70
2022/10/18 03:10:34;;;;;;;2.05;0.70;;;14.90;99.90;;;;;;5062028;28;20556;-70
2022/10/18 03:13:07;;;;;;;2.70;0.82;;;14.90;99.90;;;;;;5062153;28;20051;-70
2022/10/18 03:15:41;;;;;;;9.68;1.00;;;14.90;99.90;;;;;;5065479;28;20622;-70
2022/10/18 03:18:06;;;;;;;1.83;0.50;;;14.80;99.90;;;;;;5063369;28;20847;-70
2022/10/18 03:20:35;;;;;;;;;;;14.80;99.90;;;;;;5064262;28;20056;-70
2022/10/18 03:23:06;;;;;;;4.82;0.50;;;14.90;99.90;;;;;;5060632;28;20030;-70
2022/10/18 03:25:38;;;;;;;1.10;0.57;;;14.80;99.90;;;;;;5064650;28;20123;-70
2022/10/18 03:28:05;;;;;;;9.25;0.60;;;14.80;99.90;;;;;;5064807;28;20044;-70
2022/10/18 03:30:31;;;;;;;2.67;0.65;;;14.80;99.90;;;;;;5062853;28;20944;-70
2022/10/18 03:32:57;;;;;;;;;;;14.80;99.90;;;;;;5064073;28;20094;-69
2022/10/18 03:35:25;;;;;;;3.30;0.80;;;14.80;99.90;;;;;;5063225;28;19973;-70
2022/10/18 03:37:54;;;;;;;5.43;0.70;;;14.70;99.90;;;;;;5063925;28;20496;-70
2022/10/18 03:40:19;;;;;;;2.25;0.70;;;14.70;99.90;;;;;;5063806;28;20039;-69
2022/10/18 03:42:45;;;;;;;;;;;14.70;99.90;;;;;;5064587;28;20040;-69
2022/10/18 03:45:10;;;;;;;6.25;0.95;;;14.70;99.90;;;;;;5065052;28;20372;-69
2022/10/18 03:47:36;;;;;;;;;;;14.60;99.90;;;;;;5064485;28;20151;-69
2022/10/18 03:50:02;;;;;;;6.45;0.68;;;14.60;99.90;;;;;;5063176;28;19924;-69
2022/10/18 03:52:28;;;;;;;2.47;0.77;;;14.70;99.90;;;;;;5065018;28;20048;-69
2022/10/18 03:54:53;;;;;;;;;;;14.70;99.90;;;;;;5068780;28;20093;-69
2022/10/18 03:57:19;;;;;;;10.18;1.05;;;14.70;99.90;;;;;;5065224;28;19921;-69
2022/10/18 03:59:45;;;;;;;;;;;14.60;99.90;;;;;;5067434;28;20050;-68
2022/10/18 04:02:10;;;;;;;4.97;0.70;;;14.60;99.90;;;;;;5065873;28;19920;-69
2022/10/18 04:04:36;;;;;;;;;;;14.60;99.90;;;;;;5063603;28;20548;-69
2022/10/18 04:07:01;;;;;;;3.72;0.73;;;14.60;99.90;;;;;;5067316;28;19924;-69
2022/10/18 04:09:27;;;;;;;;;;;14.60;99.90;;;;;;5068469;28;20037;-68
2022/10/18 04:11:53;;;;;;;11.18;1.00;;;14.60;99.90;;;;;;5066679;28;19965;-69
2022/10/18 04:14:20;;;;;;;18.30;0.70;;;14.50;99.90;;;;;;5066828;28;20041;-69
2022/10/18 04:16:46;;;;;;;4.40;0.85;;;14.50;99.90;;;;;;5066882;28;20055;-70
2022/10/18 04:19:12;;;;;;;;;;;14.50;99.90;;;;;;5067725;28;20048;-69
2022/10/18 04:21:40;;;;;;;3.00;0.80;;;14.50;99.90;;;;;;5066961;28;20407;-69
2022/10/18 04:24:13;;;;;;;3.42;1.10;;;14.50;99.90;;;;;;5065486;28;20502;-69
2022/10/18 04:26:44;;;;;;;2.30;0.60;;;14.50;99.90;;;;;;5067975;28;20044;-69
2022/10/18 04:29:21;;;;;;;3.13;0.70;;;14.50;99.90;;;;;;5067694;28;20059;-69
2022/10/18 04:32:02;;;;;;;1.75;0.75;;;14.50;99.90;;;;;;5045612;28;20047;-69
2022/10/18 04:34:34;;;;;;;0.80;0.30;;;14.50;99.90;;;;;;5060564;28;20067;-69
2022/10/18 04:37:01;;;;;;;2.13;0.50;;;14.40;99.90;;;;;;5063283;28;20165;-69
2022/10/18 04:39:37;;;;;;;0.75;0.32;;;14.40;99.90;;;;;;5058017;28;20041;-70
2022/10/18 04:42:14;;;;;;;0.85;0.40;;;14.30;99.90;;;;;;5066452;28;20036;-70
2022/10/18 04:44:45;;;;;;;0.80;0.40;;;14.40;99.90;;;;;;5055097;28;20037;-71
2022/10/18 04:47:12;;;;;;;2.08;0.30;;;14.40;99.90;;;;;;5066742;28;20506;-69
2022/10/18 04:49:45;;;;;;;0.85;0.40;;;14.30;99.90;;;;;;5066306;28;20048;-68
2022/10/18 04:52:12;;;;;;;1.48;0.68;;;14.40;99.90;;;;;;5067100;28;20068;-69
2022/10/18 04:54:43;;;;;;;5.63;0.98;;;14.40;99.90;;;;;;5065729;28;20483;-68
2022/10/18 04:57:12;;;;;;;13.43;1.58;;;14.40;99.90;;;;;;5050998;28;20044;-69
2022/10/18 04:59:48;;;;;;;11.77;1.75;;;14.40;99.90;;;;;;5060950;28;20040;-69
2022/10/18 05:02:21;;;;;;;8.70;2.45;;;14.40;99.90;;;;;;5041461;28;20501;-68
2022/10/18 05:04:49;;;;;;;6.90;1.50;;;14.40;99.90;;;;;;5042650;28;20140;-69
2022/10/18 05:07:21;;;;;;;6.47;1.00;;;14.40;99.90;;;;;;5030972;28;20052;-65
2022/10/18 05:09:46;;;;;;;3.00;0.82;;;14.40;99.90;;;;;;5036652;28;20045;-68
2022/10/18 05:12:12;;;;;;;;;;;14.40;99.90;;;;;;5031390;28;20389;-70
2022/10/18 05:14:48;;;;;;;2.75;0.93;;;14.40;99.90;;;;;;5034695;28;20353;-70
2022/10/18 05:17:28;;;;;;;4.07;0.43;;;14.40;99.90;;;;;;5027209;28;20129;-70
2022/10/18 05:19:54;;;;;;;1.05;0.20;;;14.40;99.90;;;;;;5027758;28;20630;-70
2022/10/18 05:22:26;;;;;;;;;;;14.40;99.90;;;;;;5038788;28;20555;-69
2022/10/18 05:24:56;;;;;;;3.88;0.75;;;14.40;99.90;;;;;;5039500;28;19933;-69
2022/10/18 05:27:27;;;;;;;1.58;0.55;;;14.40;99.90;;;;;;5036124;28;20037;-68
2022/10/18 05:29:56;;;;;;;5.82;0.50;;;14.30;99.90;;;;;;5037847;28;20045;-69
2022/10/18 05:32:21;;;;;;;;;;;14.40;99.90;;;;;;5035286;28;20091;-69
2022/10/18 05:34:47;;;;;;;6.55;0.70;;;14.30;99.90;;;;;;5036365;28;19919;-68
2022/10/18 05:37:13;;;;;;;;;;;14.30;99.90;;;;;;5038984;28;20153;-69
2022/10/18 05:39:38;;;;;;;4.47;0.52;;;14.30;99.90;;;;;;5034797;28;20030;-67
2022/10/18 05:42:04;;;;;;;;;;;14.30;99.90;;;;;;5037781;28;20055;-68
2022/10/18 05:44:30;;;;;;;9.85;0.70;;;14.30;99.90;;;;;;5033430;28;20388;-69
2022/10/18 05:46:56;;;;;;;4.00;0.70;;;14.30;99.90;;;;;;5027842;28;20037;-69
2022/10/18 05:49:21;;;;;;;;;;;14.30;99.90;;;;;;5025868;28;20057;-68
2022/10/18 05:51:48;;;;;;;1.17;0.20;;;14.30;99.90;;;;;;5026598;28;19924;-69
2022/10/18 05:54:14;;;;;;;0.93;0.40;;;14.30;99.90;;;;;;5026352;28;20041;-68
2022/10/18 05:56:40;;;;;;;;;;;14.40;99.90;;;;;;5026394;28;20134;-68
2022/10/18 05:59:09;;;;;;;2.95;1.02;;;14.30;99.90;;;;;;5024274;28;19917;-69
2022/10/18 06:01:36;;;;;;;3.72;0.95;;;14.30;99.90;;;;;;5034505;28;20036;-69
2022/10/18 06:04:01;;;;;;;5.45;0.80;;;14.30;99.90;;;;;;5041670;28;20050;-69
2022/10/18 06:06:27;;;;;;;;;;;14.30;99.90;;;;;;5042903;28;20033;-69
2022/10/18 06:08:53;;;;;;;7.40;0.63;;;14.30;99.90;;;;;;5043863;28;19921;-69
2022/10/18 06:11:19;;;;;;;;;;;14.30;99.90;;;;;;5046043;28;20028;-69
2022/10/18 06:13:46;;;;;;;8.45;1.48;;;14.30;99.90;;;;;;5044922;28;20459;-69
2022/10/18 06:16:14;;;;;;;5.30;0.90;;;14.30;99.90;;;;;;5044915;28;20116;-69
2022/10/18 06:18:40;;;;;;;6.80;1.83;;;14.20;99.90;;;;;;5044828;28;20033;-69
2022/10/18 06:21:06;;;;;;;9.05;3.50;;;14.20;99.90;;;;;;5044839;28;20076;-70
2022/10/18 06:23:32;;;;;;;4.25;1.40;;;14.20;99.90;;;;;;5040073;28;20029;-70
2022/10/18 06:25:59;;;;;;;;;;;14.30;99.90;;;;;;5039101;28;20095;-70
2022/10/18 06:28:25;;;;;;;3.10;0.70;;;14.30;99.90;;;;;;5040463;28;19931;-69
2022/10/18 06:30:50;;;;;;;3.22;0.80;;;14.30;99.90;;;;;;5040916;28;20267;-69
2022/10/18 06:33:16;;;;;;;;;;;14.30;99.90;;;;;;5066035;28;20049;-70
2022/10/18 06:35:42;;;;;;;4.72;1.27;;;14.30;99.90;;;;;;5058408;28;19922;-70
2022/10/18 06:38:07;;;;;;;;;;;14.30;99.90;;;;;;5065418;28;20381;-70
2022/10/18 06:40:36;;;;;;;2.10;1.35;;;14.20;99.90;;;;;;5064831;28;19924;-70
2022/10/18 06:43:05;;;;;;;2.17;1.10;;;14.20;99.90;;;;;;5063684;28;20051;-70
2022/10/18 06:45:32;;;;;;;5.78;1.35;;;14.20;99.90;;;;;;5065516;28;20047;-68
2022/10/18 06:47:58;;;;;;;3.70;1.40;;;14.20;99.90;;;;;;5065665;28;20080;-69
2022/10/18 06:50:23;;;;;;;;;;;14.20;99.90;;;;;;5065433;28;20067;-69
2022/10/18 06:52:51;;;;;;;6.28;1.65;;;14.20;99.90;;;;;;5064830;28;19916;-68
2022/10/18 06:55:17;;;;;;;2.53;1.02;;;14.20;99.90;;;;;;5065110;28;20515;-68
2022/10/18 06:57:42;;;;;;;;;;;14.20;99.90;;;;;;5064319;28;20045;-70
2022/10/18 07:00:08;;;;;;;3.25;1.25;;;14.20;99.90;;;;;;5064664;28;19996;-68
2022/10/18 07:02:34;;;;;;;2.95;1.40;;;14.20;99.90;;;;;;5064294;28;20029;-68
2022/10/18 07:05:00;;;;;;;;;;;14.20;99.90;;;;;;5063705;28;20059;-69
2022/10/18 07:07:25;;;;;;;6.95;1.27;;;14.20;99.90;;;;;;5064806;28;19924;-69
2022/10/18 07:09:51;;;;;;;3.60;1.33;;;14.20;99.90;;;;;;5064049;28;20044;-69
2022/10/18 07:12:16;;;;;;;;;;;14.20;99.90;;;;;;5065641;28;20116;-68
2022/10/18 07:14:44;;;;;;;5.95;1.50;;;14.20;99.90;;;;;;5054995;28;20533;-69
2022/10/18 07:17:11;;;;;;;6.32;2.08;;;14.20;99.90;;;;;;5055452;28;20044;-65
2022/10/18 07:19:36;;;;;;;5.80;1.85;;;14.20;99.90;;;;;;5063339;28;20067;-70
2022/10/18 07:22:02;;;;;;;;;;;14.20;99.90;;;;;;5061746;28;20064;-69
2022/10/18 07:24:48;;;;;;;4.10;1.70;;;14.30;99.90;;;;;;5056370;28;19917;-69
2022/10/18 07:27:19;;;;;;;6.97;2.35;;;14.30;99.90;;;;;;5065111;28;20056;-71
2022/10/18 07:29:48;;;;;;;7.65;2.20;;;14.30;99.90;;;;;;5063061;28;20055;-69
2022/10/18 07:32:16;;;;;;;9.38;2.15;;;14.30;99.90;;;;;;5055693;28;20028;-70
2022/10/18 07:34:47;;;;;;;4.55;1.63;;;14.30;99.90;;;;;;5061908;28;20045;-70
2022/10/18 07:37:12;;;;;;;3.53;2.00;;;14.40;99.90;;;;;;5068088;28;20071;-70
2022/10/18 07:39:41;;;;;;;;;;;14.40;99.90;;;;;;5067992;28;20068;-69
2022/10/18 07:42:12;;;;;;;3.60;1.92;;;14.40;99.90;;;;;;5066685;28;19916;-71
2022/10/18 07:44:41;;;;;;;4.68;1.80;;;14.40;99.90;;;;;;5068219;28;20044;-70
2022/10/18 07:47:11;;;;;;;3.45;2.33;;;14.40;99.90;;;;;;5068652;28;20036;-69
2022/10/18 07:49:39;;;;;;;4.47;2.22;;;14.40;99.90;;;;;;5066704;28;20072;-69
2022/10/18 07:52:10;;;;;;;9.43;2.42;;;14.40;99.90;;;;;;5068454;28;20045;-69
2022/10/18 07:54:42;;;;;;;3.63;2.00;;;14.30;99.90;;;;;;5067673;28;20044;-69
2022/10/18 07:57:11;;;;;;;3.90;2.40;;;14.30;99.90;;;;;;5068286;28;20048;-70
2022/10/18 07:59:39;;;;;;;6.30;2.80;;;14.30;99.90;;;;;;5067861;28;20408;-70
2022/10/18 08:02:04;;;;;;;3.47;2.22;;;14.30;99.90;;;;;;5037271;28;20096;-70
2022/10/18 08:04:36;;;;;;;;;;;14.40;99.90;;;;;;5044578;28;20535;-69
2022/10/18 08:07:04;;;;;;;4.93;2.58;;;14.40;99.90;;;;;;5032812;28;19952;-69
2022/10/18 08:09:37;;;;;;;6.50;2.83;;;14.40;99.90;;;;;;5038520;28;20051;-69
2022/10/18 08:12:08;;;;;;;4.03;2.38;;;14.50;99.90;;;;;;5047169;28;20040;-70
2022/10/18 08:14:34;;;;;;;4.05;2.70;;;14.50;99.90;;;;;;5032507;28;20073;-70
2022/10/18 08:16:59;;;;;;;;;;;14.50;99.90;;;;;;5048468;28;20084;-70
2022/10/18 08:19:25;;;;;;;4.03;2.58;;;14.60;99.90;;;;;;5038078;28;19921;-69
2022/10/18 08:21:51;;;;;;;;;;;14.60;99.90;;;;;;5039282;28;20033;-68
2022/10/18 08:24:16;;;;;;;6.03;3.30;;;14.60;99.90;;;;;;5029593;28;19921;-68
2022/10/18 08:26:42;;;;;;;;;;;14.60;99.90;;;;;;5027453;28;20201;-71
2022/10/18 08:29:09;;;;;;;25.88;4.43;;;14.60;99.90;;;;;;5032134;28;19940;-69
2022/10/18 08:31:35;;;;;;;6.70;3.47;;;14.70;99.90;;;;;;5042216;28;20033;-70
2022/10/18 08:34:00;;;;;;;;;;;14.70;99.90;;;;;;5034991;28;20033;-69
2022/10/18 08:36:26;;;;;;;5.10;3.58;;;14.70;99.90;;;;;;5045590;28;19970;-71
2022/10/18 08:38:51;;;;;;;;;;;14.60;99.90;;;;;;5031287;28;20099;-71
2022/10/18 08:41:25;;;;;;;5.50;3.00;;;14.70;99.90;;;;;;5035358;28;19916;-70
2022/10/18 08:44:27;;;;;;;4.70;3.30;;;14.70;99.90;;;;;;5046325;28;20047;-70
2022/10/18 08:47:20;;;;;;;7.72;3.67;;;14.70;99.90;;;;;;5031602;28;20036;-70
2022/10/18 08:49:56;;;;;;;7.38;3.28;;;14.70;99.90;;;;;;5030192;28;20056;-71
2022/10/18 08:52:51;;;;;;;3.53;2.78;;;14.70;99.90;;;;;;5035312;28;20045;-70
2022/10/18 08:55:41;;;;;;;6.47;2.80;;;14.70;99.90;;;;;;5026825;28;20053;-70
2022/10/18 08:58:22;;;;;;;6.47;3.65;;;14.80;99.90;;;;;;5038277;28;20044;-70
2022/10/18 09:01:19;;;;;;;7.38;2.95;;;14.80;99.90;;;;;;5036963;28;20067;-70
2022/10/18 09:04:22;;;;;;;3.25;2.45;;;14.90;99.90;;;;;;5034234;28;20068;-69
2022/10/18 09:07:05;;;;;;;4.25;2.97;;;14.90;99.90;;;;;;5033824;28;20051;-69
2022/10/18 09:09:52;;;;;;;4.90;3.50;;;14.90;99.90;;;;;;5028761;28;20080;-69
2022/10/18 09:13:07;;;;;;;7.82;3.75;;;14.90;99.90;;;;;;5040818;28;20045;-70
2022/10/18 09:15:59;;;;;;;4.90;4.07;;;15.00;99.90;;;;;;5023801;28;20548;-69
2022/10/18 09:18:33;;;;;;;4.07;3.50;;;15.00;99.90;;;;;;5038012;28;20045;-71
2022/10/18 09:21:44;;;;;;;10.77;3.78;;;15.00;99.90;;;;;;5039176;28;20408;-69
2022/10/18 09:24:25;;;;;;;4.10;3.50;;;15.10;99.90;;;;;;5035642;28;20518;-69
2022/10/18 09:27:05;;;;;;;6.07;3.40;;;15.30;99.90;;;;;;5046741;28;20044;-70
2022/10/18 09:29:49;;;;;;;3.70;3.03;;;15.40;99.90;;;;;;5046999;28;20146;-69
2022/10/18 09:33:00;;;;;;;7.50;4.10;;;15.60;99.90;;;;;;5014782;28;20034;-70
2022/10/18 09:35:54;;;;;;;7.10;3.70;;;15.60;99.90;;;;;;5033422;28;20033;-70
2022/10/18 09:38:36;;;;;;;4.65;3.28;;;15.70;99.90;;;;;;5027024;28;20045;-70
2022/10/18 09:41:13;;;;;;;5.55;4.13;;;15.70;99.90;;;;;;5026006;28;20037;-69
2022/10/18 09:44:02;;;;;;;7.95;4.95;;;15.70;99.90;;;;;;5037004;28;20489;-71
2022/10/18 09:46:32;;;;;;;7.97;4.40;;;15.70;99.90;;;;;;5032657;28;20076;-70
2022/10/18 09:49:03;;;;;;;8.43;4.57;;;15.50;99.90;;;;;;5025753;28;20057;-70
2022/10/18 09:51:38;;;;;;;10.00;4.35;;;15.60;99.90;;;;;;5025922;28;20111;-70
2022/10/18 09:54:29;;;;;;;7.03;4.55;;;15.60;99.90;;;;;;5025973;28;20044;-70
2022/10/18 09:57:15;;;;;;;4.88;4.03;;;15.50;99.90;;;;;;5039992;28;20045;-70
2022/10/18 09:59:44;;;;;;;6.85;4.20;;;15.50;99.90;;;;;;5028111;28;20162;-71
2022/10/18 10:02:16;;;;;;;8.48;4.90;;;15.60;99.90;;;;;;5036284;28;20089;-71
2022/10/18 10:04:42;;;;;;;8.50;4.65;;;15.60;99.90;;;;;;5027943;28;20050;-70
2022/10/18 10:07:15;;;;;;;5.43;3.70;;;15.60;99.90;;;;;;5036210;28;20073;-71
2022/10/18 10:09:46;;;;;;;4.57;4.00;;;15.70;99.90;;;;;;5038199;28;20075;-70
2022/10/18 10:12:31;;;;;;;6.72;4.07;;;15.70;99.90;;;;;;5028958;28;20037;-71
2022/10/18 10:15:26;;;;;;;6.75;4.30;;;15.70;99.90;;;;;;5032523;28;20028;-71
2022/10/18 10:18:01;;;;;;;6.20;4.28;;;15.80;99.90;;;;;;5025091;28;20405;-71
2022/10/18 10:20:27;;;;;;;7.28;4.28;;;15.80;99.90;;;;;;5031874;28;20497;-71
2022/10/18 10:22:52;;;;;;;;;;;15.80;99.90;;;;;;5027760;28;20038;-70
2022/10/18 10:25:30;;;;;;;8.70;3.85;;;15.90;99.90;;;;;;5030290;28;19917;-70
2022/10/18 10:28:03;;;;;;;4.70;3.72;;;15.90;99.90;;;;;;5032194;28;20041;-69
2022/10/18 10:30:36;;;;;;;7.57;4.50;;;15.90;99.90;;;;;;5031097;28;20052;-71
2022/10/18 10:33:03;;;;;;;8.15;4.20;;;16.00;99.90;;;;;;5029593;28;20131;-71
2022/10/18 10:35:38;;;;;;;7.43;4.53;;;15.90;99.90;;;;;;5027770;28;20450;-69
2022/10/18 10:38:04;;;;;;;5.40;3.55;;;15.80;99.90;;;;;;5031169;28;20064;-66
2022/10/18 10:40:33;;;;;;;8.63;4.20;;;15.90;99.90;;;;;;5027304;28;20041;-69
2022/10/18 10:43:05;;;;;;;7.03;3.80;;;15.90;99.90;;;;;;5034302;28;20037;-70
2022/10/18 10:45:38;;;;;;;5.80;4.03;;;15.90;99.90;;;;;;5036795;28;20037;-70
2022/10/18 10:48:15;;;;;;;9.77;4.47;;;15.80;99.90;;;;;;5032603;28;20050;-68
2022/10/18 10:50:52;;;;;;;7.18;4.13;;;15.80;99.90;;;;;;5033240;28;20049;-71
2022/10/18 10:53:25;;;;;;;7.50;4.13;;;15.80;99.90;;;;;;5036551;28;20038;-71
2022/10/18 10:55:53;;;;;;;7.45;4.60;;;15.70;99.90;;;;;;5031686;28;20039;-70
2022/10/18 10:58:20;;;;;;;8.32;4.30;;;15.70;99.90;;;;;;5035824;28;20056;-70
2022/10/18 11:00:45;;;;;;;8.15;4.90;;;15.60;99.90;;;;;;5030840;28;20042;-70
2022/10/18 11:03:13;;;;;;;;;;;15.60;99.90;;;;;;5030229;28;20059;-70
2022/10/18 11:05:51;;;;;;;5.30;4.15;;;15.60;99.90;;;;;;5033662;28;19932;-70
2022/10/18 11:08:25;;;;;;;7.07;4.88;;;15.70;99.90;;;;;;5032783;28;20052;-70
2022/10/18 11:11:00;;;;;;;8.30;4.65;;;15.80;99.90;;;;;;5032250;28;20044;-70
2022/10/18 11:13:55;;;;;;;5.32;3.83;;;15.80;99.90;;;;;;5034479;28;20045;-73
2022/10/18 11:16:53;;;;;;;8.40;5.47;;;16.00;99.90;;;;;;5031076;28;20037;-68
2022/10/18 11:19:57;;;;;;;6.78;5.10;;;16.00;99.90;;;;;;5029984;28;20041;-69
2022/10/18 11:22:26;;;;;;;5.72;3.65;;;16.30;99.90;;;;;;5016026;28;20139;-67
2022/10/18 11:24:52;;;;;;;10.70;4.30;;;16.70;99.90;;;;;;5035436;28;20048;-68
2022/10/18 11:27:26;;;;;;;;;;;16.90;99.90;;;;;;5037301;28;20033;-68
2022/10/18 11:30:13;;;;;;;7.10;4.20;;;16.90;99.90;;;;;;5034031;28;19936;-70
2022/10/18 11:32:59;;;;;;;5.70;3.85;;;16.90;99.90;;;;;;5031315;28;20037;-69
2022/10/18 11:35:34;;;;;;;5.70;3.92;;;16.90;99.90;;;;;;5029401;28;20083;-69
2022/10/18 11:38:34;;;;;;;6.85;4.20;;;17.00;99.90;;;;;;5031814;28;20040;-69
2022/10/18 11:41:09;;;;;;;7.78;3.72;;;17.00;99.90;;;;;;5025035;28;20056;-68
2022/10/18 11:43:57;;;;;;;4.75;4.03;;;17.00;99.90;;;;;;5031011;28;20067;-67
2022/10/18 11:46:39;;;;;;;8.70;4.45;;;17.00;99.90;;;;;;5024492;28;20041;-67
2022/10/18 11:49:32;;;;;;;8.80;4.20;;;16.90;99.90;;;;;;5023227;28;20088;-68
2022/10/18 11:52:04;;;;;;;6.03;4.30;;;16.90;99.90;;;;;;5025615;28;20091;-68
2022/10/18 11:54:54;;;;;;;5.93;4.45;;;16.80;99.90;;;;;;5044358;28;20786;-68
2022/10/18 11:57:48;;;;;;;4.95;4.30;;;16.80;99.90;;;;;;5034763;28;20053;-69
2022/10/18 12:00:19;;;;;;;5.70;4.70;;;16.90;99.90;;;;;;5032482;28;20037;-68
2022/10/18 12:03:23;;;;;;;7.22;4.55;;;17.00;99.90;;;;;;5049947;28;20037;-66
2022/10/18 12:05:50;;;;;;;6.15;4.15;;;16.90;99.90;;;;;;5064392;28;20048;-67
2022/10/18 12:08:22;;;;;;;6.10;4.82;;;17.00;99.90;;;;;;5060318;28;20577;-69
2022/10/18 12:10:56;;;;;;;9.77;5.35;;;17.00;99.90;;;;;;5061118;28;20094;-68
2022/10/18 12:13:34;;;;;;;8.55;4.30;;;17.00;99.90;;;;;;5060524;28;20054;-68
2022/10/18 12:16:03;;;;;;;6.30;4.85;;;16.90;99.90;;;;;;5067477;28;20051;-68
2022/10/18 12:18:30;;;;;;;6.97;4.60;;;17.00;99.90;;;;;;5060044;28;20045;-68
2022/10/18 12:20:58;;;;;;;7.63;4.93;;;17.00;99.90;;;;;;5067102;28;20036;-68
2022/10/18 12:23:50;;;;;;;8.98;5.57;;;17.10;99.90;;;;;;5067557;28;20045;-68
2022/10/18 12:26:16;;;;;;;6.72;5.78;;;16.90;99.90;;;;;;5063549;28;20041;-69
2022/10/18 12:28:42;;;;;;;10.68;5.85;;;16.70;99.90;;;;;;5062381;28;20095;-69
2022/10/18 12:31:07;;;;;;;;;;;16.50;99.90;;;;;;5058686;28;20048;-69
2022/10/18 12:33:45;;;;;;;14.05;6.15;;;16.50;99.90;;;;;;5047650;28;19920;-68
2022/10/18 12:36:20;;;;;;;7.53;4.32;;;16.40;99.90;;;;;;5045630;28;20040;-69
2022/10/18 12:39:08;;;;;;;5.13;3.92;;;16.20;99.90;;;;;;5039170;28;20526;-68
2022/10/18 12:41:38;;;;;;;5.90;4.00;;;16.10;99.90;;;;;;5042431;28;20037;-68
2022/10/18 12:44:39;;;;;;;5.72;3.60;;;16.00;99.90;;;;;;5032852;28;20730;-69
2022/10/18 12:47:24;;;;;;;5.65;4.43;;;16.00;99.90;;;;;;5018568;28;20060;-69
2022/10/18 12:50:09;;;;;;;6.07;3.70;;;16.00;99.90;;;;;;5040497;28;20090;-70
2022/10/18 12:52:36;;;;;;;5.28;3.97;;;16.10;99.90;;;;;;5036791;28;20041;-69
2022/10/18 12:55:01;;;;;;;5.10;3.97;;;16.10;99.90;;;;;;5040276;28;20033;-70
2022/10/18 12:57:47;;;;;;;;;;;16.20;99.90;;;;;;5045989;28;20048;-70
2022/10/18 13:00:31;;;;;;;7.38;3.65;;;16.30;99.90;;;;;;5033388;28;19921;-70
2022/10/18 13:03:11;;;;;;;6.13;4.18;;;16.50;99.90;;;;;;5060163;28;20420;-71
2022/10/18 13:05:54;;;;;;;5.90;4.00;;;16.50;99.90;;;;;;5047546;28;20064;-67
2022/10/18 13:08:32;;;;;;;10.82;4.32;;;16.70;99.90;;;;;;5054329;28;20098;-67
2022/10/18 13:11:07;;;;;;;7.13;4.70;;;16.80;99.90;;;;;;5059370;28;20504;-67
2022/10/18 13:14:07;;;;;;;9.68;5.65;;;16.80;99.90;;;;;;5066608;28;20037;-69
2022/10/18 13:16:41;;;;;;;8.70;4.57;;;16.80;99.90;;;;;;5066470;28;20040;-69
2022/10/18 13:19:30;;;;;;;14.52;5.43;;;16.70;99.90;;;;;;5065533;28;20075;-68
2022/10/18 13:22:05;;;;;;;13.27;5.40;;;16.60;99.90;;;;;;5078360;28;20040;-68
2022/10/18 13:25:08;;;;;;;9.43;5.90;;;16.60;99.90;;;;;;5065613;28;20036;-69
2022/10/18 13:27:44;;;;;;;10.20;5.72;;;16.60;99.90;;;;;;5066650;28;20039;-68
2022/10/18 13:30:17;;;;;;;10.18;6.70;;;16.60;99.90;;;;;;5065646;28;20148;-69
2022/10/18 13:32:51;;;;;;;15.98;7.95;;;16.50;99.90;;;;;;5062320;28;20036;-69